Terminal Aerodrome Forecast
Issued by NWS

Home | Current Version | Previous Version | Text Only | Print | Product List | Glossary On
Versions: 1 2 3 4 5 6 7 8 9 10 11 12 13 14 15 16 17
000
FTUS43 KUNR 061730
TAFGCC
TAF
KGCC 061730Z 0618/0718 33017G27KT P6SM OVC015
      TEMPO 0618/0622 4SM -RA BR OVC008
     FM070300 31010KT P6SM OVC035=

USA.gov is the U.S. government's official web portal to all federal, state and local government web resources and services.